TAP192 LPPR-LPPT
Flight info
| Callsign | TAP192 |
|---|---|
| Flight time | 0h 36m |
| Altitude | 33000 |
| Route | MANIK DCT ABRIL DCT XAMAX |
| Aircraft | A320/M-SDE3FGHIRWY/LB1 |
Departure
| Time | 2026-05-05 21:14 |
|---|---|
| Airport | Francisco de Sá Carneiro Airport (LPPR) |
Arrival
| Time | 2026-05-05 21:51 |
|---|---|
| Airport | Lisbon Humberto Delgado Airport (LPPT) |
| Time | Latitude | Longitude | Altitude | Speed | Heading |
|---|---|---|---|---|---|
| 2026-05-05 20:48 | 41.23549 | -8.67229 | 245 ft | 0 kts | 109° |
| 2026-05-05 21:07 | 41.23553 | -8.67245 | 245 ft | 4 kts | 112° |
| 2026-05-05 21:08 | 41.23566 | -8.67276 | 244 ft | 4 kts | 125° |
| 2026-05-05 21:08 | 41.23583 | -8.67303 | 243 ft | 4 kts | 141° |
| 2026-05-05 21:08 | 41.23606 | -8.67322 | 242 ft | 4 kts | 159° |
| 2026-05-05 21:08 | 41.23631 | -8.67331 | 242 ft | 3 kts | 168° |
| 2026-05-05 21:09 | 41.23633 | -8.67332 | 242 ft | 0 kts | 168° |
| 2026-05-05 21:11 | 41.23599 | -8.67330 | 242 ft | 7 kts | 185° |
| 2026-05-05 21:11 | 41.23555 | -8.67363 | 241 ft | 11 kts | 212° |
| 2026-05-05 21:11 | 41.23462 | -8.67383 | 239 ft | 15 kts | 172° |
| 2026-05-05 21:12 | 41.23373 | -8.67363 | 239 ft | 11 kts | 190° |
| 2026-05-05 21:12 | 41.23330 | -8.67451 | 241 ft | 12 kts | 256° |
| 2026-05-05 21:12 | 41.23314 | -8.67547 | 238 ft | 10 kts | 259° |
| 2026-05-05 21:12 | 41.23307 | -8.67598 | 235 ft | 0 kts | 259° |
| 2026-05-05 21:13 | 41.23306 | -8.67611 | 241 ft | 9 kts | 259° |
| 2026-05-05 21:13 | 41.23343 | -8.67740 | 238 ft | 18 kts | 339° |
| 2026-05-05 21:14 | 41.23598 | -8.67809 | 233 ft | 73 kts | 349° |
| 2026-05-05 21:14 | 41.24401 | -8.68019 | 215 ft | 157 kts | 349° |
| 2026-05-05 21:14 | 41.25552 | -8.68327 | 870 ft | 170 kts | 349° |
| 2026-05-05 21:14 | 41.26713 | -8.68631 | 1753 ft | 172 kts | 349° |
| 2026-05-05 21:15 | 41.27951 | -8.68952 | 2096 ft | 195 kts | 349° |
| 2026-05-05 21:15 | 41.29370 | -8.69327 | 2466 ft | 220 kts | 349° |
| 2026-05-05 21:15 | 41.30952 | -8.69745 | 2963 ft | 244 kts | 349° |
| 2026-05-05 21:15 | 41.32674 | -8.70202 | 3638 ft | 258 kts | 348° |
| 2026-05-05 21:16 | 41.34458 | -8.70668 | 4548 ft | 264 kts | 349° |
| 2026-05-05 21:16 | 41.36272 | -8.71140 | 5528 ft | 267 kts | 348° |
| 2026-05-05 21:16 | 41.38102 | -8.71621 | 6497 ft | 269 kts | 348° |
| 2026-05-05 21:16 | 41.39886 | -8.72388 | 7380 ft | 272 kts | 329° |
| 2026-05-05 21:17 | 41.41310 | -8.74049 | 8218 ft | 275 kts | 304° |
| 2026-05-05 21:17 | 41.42090 | -8.76368 | 9052 ft | 278 kts | 279° |
| 2026-05-05 21:17 | 41.42062 | -8.78929 | 9861 ft | 280 kts | 255° |
| 2026-05-05 21:17 | 41.41208 | -8.81252 | 10732 ft | 282 kts | 231° |
| 2026-05-05 21:18 | 41.39676 | -8.82888 | 11600 ft | 287 kts | 207° |
| 2026-05-05 21:18 | 41.37672 | -8.83540 | 12017 ft | 314 kts | 182° |
| 2026-05-05 21:18 | 41.35419 | -8.83035 | 12242 ft | 342 kts | 170° |
| 2026-05-05 21:18 | 41.33030 | -8.82266 | 12527 ft | 361 kts | 169° |
| 2026-05-05 21:19 | 41.30565 | -8.81427 | 13143 ft | 369 kts | 168° |
| 2026-05-05 21:19 | 41.28069 | -8.80564 | 13853 ft | 373 kts | 169° |
| 2026-05-05 21:19 | 41.25542 | -8.79702 | 14555 ft | 377 kts | 169° |
| 2026-05-05 21:19 | 41.22988 | -8.78850 | 15234 ft | 380 kts | 169° |
| 2026-05-05 21:20 | 41.20435 | -8.78017 | 15877 ft | 384 kts | 169° |
| 2026-05-05 21:20 | 41.17827 | -8.77181 | 16511 ft | 387 kts | 169° |
| 2026-05-05 21:20 | 41.15159 | -8.76329 | 17128 ft | 391 kts | 169° |
| 2026-05-05 21:20 | 41.12538 | -8.75490 | 17702 ft | 394 kts | 169° |
| 2026-05-05 21:21 | 41.09856 | -8.74627 | 18276 ft | 398 kts | 169° |
| 2026-05-05 21:21 | 41.07147 | -8.73751 | 18839 ft | 401 kts | 169° |
| 2026-05-05 21:21 | 41.04424 | -8.72873 | 19390 ft | 404 kts | 169° |
| 2026-05-05 21:21 | 41.01681 | -8.71991 | 19929 ft | 407 kts | 169° |
| 2026-05-05 21:22 | 40.98915 | -8.71102 | 20458 ft | 411 kts | 169° |
| 2026-05-05 21:22 | 40.96126 | -8.70208 | 20974 ft | 413 kts | 169° |
| 2026-05-05 21:22 | 40.93321 | -8.69310 | 21463 ft | 416 kts | 169° |
| 2026-05-05 21:22 | 40.90498 | -8.68406 | 21948 ft | 419 kts | 169° |
| 2026-05-05 21:23 | 40.87649 | -8.67495 | 22421 ft | 422 kts | 169° |
| 2026-05-05 21:23 | 40.84787 | -8.66581 | 22868 ft | 425 kts | 169° |
| 2026-05-05 21:23 | 40.81908 | -8.65665 | 23175 ft | 427 kts | 169° |
| 2026-05-05 21:23 | 40.79002 | -8.64744 | 23245 ft | 435 kts | 169° |
| 2026-05-05 21:24 | 40.76022 | -8.63797 | 23252 ft | 445 kts | 169° |
| 2026-05-05 21:24 | 40.73004 | -8.62833 | 23244 ft | 447 kts | 169° |
| 2026-05-05 21:24 | 40.69978 | -8.61881 | 23247 ft | 447 kts | 171° |
| 2026-05-05 21:24 | 40.66905 | -8.61323 | 23242 ft | 445 kts | 177° |
| 2026-05-05 21:25 | 40.63814 | -8.60950 | 23250 ft | 445 kts | 177° |
| 2026-05-05 21:25 | 40.60728 | -8.60579 | 23249 ft | 445 kts | 177° |
| 2026-05-05 21:25 | 40.57631 | -8.60208 | 23242 ft | 445 kts | 177° |
| 2026-05-05 21:25 | 40.54549 | -8.59837 | 23243 ft | 445 kts | 177° |
| 2026-05-05 21:26 | 40.51504 | -8.59470 | 23246 ft | 445 kts | 177° |
| 2026-05-05 21:26 | 40.48414 | -8.59096 | 23249 ft | 445 kts | 177° |
| 2026-05-05 21:26 | 40.45332 | -8.58721 | 23248 ft | 445 kts | 176° |
| 2026-05-05 21:26 | 40.42249 | -8.58346 | 23239 ft | 445 kts | 176° |
| 2026-05-05 21:27 | 40.39166 | -8.57973 | 23243 ft | 445 kts | 176° |
| 2026-05-05 21:27 | 40.36083 | -8.57602 | 23240 ft | 445 kts | 176° |
| 2026-05-05 21:27 | 40.33001 | -8.57231 | 23237 ft | 445 kts | 176° |
| 2026-05-05 21:27 | 40.29924 | -8.56861 | 23238 ft | 445 kts | 176° |
| 2026-05-05 21:28 | 40.26841 | -8.56488 | 23237 ft | 445 kts | 176° |
| 2026-05-05 21:28 | 40.23757 | -8.56115 | 23235 ft | 445 kts | 176° |
| 2026-05-05 21:28 | 40.20676 | -8.55740 | 23235 ft | 445 kts | 176° |
| 2026-05-05 21:28 | 40.18590 | -8.55486 | 23235 ft | 445 kts | 176° |
| 2026-05-05 21:29 | 40.15505 | -8.55109 | 23235 ft | 445 kts | 176° |
| 2026-05-05 21:29 | 40.12421 | -8.54734 | 23235 ft | 445 kts | 176° |
| 2026-05-05 21:29 | 40.09382 | -8.54368 | 23235 ft | 445 kts | 176° |
| 2026-05-05 21:29 | 40.06298 | -8.53999 | 23234 ft | 445 kts | 176° |
| 2026-05-05 21:30 | 40.03217 | -8.53630 | 23234 ft | 445 kts | 176° |
| 2026-05-05 21:30 | 40.00133 | -8.53294 | 23233 ft | 444 kts | 178° |
| 2026-05-05 21:30 | 39.97049 | -8.53019 | 23232 ft | 444 kts | 178° |
| 2026-05-05 21:30 | 39.93962 | -8.52928 | 23222 ft | 442 kts | 186° |
| 2026-05-05 21:31 | 39.90972 | -8.53756 | 23223 ft | 439 kts | 201° |
| 2026-05-05 21:31 | 39.88196 | -8.55389 | 23227 ft | 438 kts | 207° |
| 2026-05-05 21:31 | 39.85453 | -8.57117 | 23226 ft | 438 kts | 207° |
| 2026-05-05 21:31 | 39.82710 | -8.58857 | 23229 ft | 439 kts | 207° |
| 2026-05-05 21:32 | 39.79969 | -8.60601 | 23232 ft | 439 kts | 207° |
| 2026-05-05 21:32 | 39.77227 | -8.62343 | 23232 ft | 439 kts | 207° |
| 2026-05-05 21:32 | 39.74481 | -8.64079 | 23230 ft | 438 kts | 207° |
| 2026-05-05 21:32 | 39.71733 | -8.65811 | 23232 ft | 438 kts | 207° |
| 2026-05-05 21:33 | 39.68988 | -8.67539 | 23229 ft | 439 kts | 207° |
| 2026-05-05 21:33 | 39.66243 | -8.69266 | 23230 ft | 439 kts | 207° |
| 2026-05-05 21:33 | 39.63495 | -8.70993 | 23231 ft | 439 kts | 207° |
| 2026-05-05 21:33 | 39.60748 | -8.72720 | 23229 ft | 439 kts | 207° |
| 2026-05-05 21:34 | 39.57999 | -8.74446 | 23232 ft | 439 kts | 207° |
| 2026-05-05 21:34 | 39.55246 | -8.76170 | 23233 ft | 440 kts | 207° |
| 2026-05-05 21:34 | 39.52491 | -8.77893 | 23233 ft | 440 kts | 207° |
| 2026-05-05 21:34 | 39.49733 | -8.79619 | 23231 ft | 440 kts | 207° |
| 2026-05-05 21:35 | 39.46981 | -8.81342 | 23231 ft | 440 kts | 207° |
| 2026-05-05 21:35 | 39.44228 | -8.83064 | 23231 ft | 440 kts | 207° |
| 2026-05-05 21:35 | 39.41478 | -8.84781 | 23230 ft | 439 kts | 207° |
| 2026-05-05 21:35 | 39.38726 | -8.86501 | 23228 ft | 439 kts | 207° |
| 2026-05-05 21:36 | 39.35970 | -8.88221 | 23228 ft | 439 kts | 207° |
| 2026-05-05 21:36 | 39.33214 | -8.89932 | 23225 ft | 440 kts | 207° |
| 2026-05-05 21:36 | 39.30457 | -8.91642 | 23225 ft | 440 kts | 207° |
| 2026-05-05 21:36 | 39.27696 | -8.93359 | 23227 ft | 440 kts | 207° |
| 2026-05-05 21:37 | 39.24967 | -8.95058 | 23038 ft | 428 kts | 207° |
| 2026-05-05 21:37 | 39.22366 | -8.96674 | 22786 ft | 414 kts | 207° |
| 2026-05-05 21:37 | 39.19816 | -8.98252 | 22531 ft | 400 kts | 207° |
| 2026-05-05 21:37 | 39.17345 | -8.99780 | 22288 ft | 388 kts | 207° |
| 2026-05-05 21:38 | 39.14936 | -9.01270 | 22038 ft | 381 kts | 207° |
| 2026-05-05 21:38 | 39.12554 | -9.02743 | 21788 ft | 379 kts | 207° |
| 2026-05-05 21:38 | 39.10184 | -9.04207 | 21536 ft | 377 kts | 207° |
| 2026-05-05 21:38 | 39.07822 | -9.05663 | 21285 ft | 376 kts | 207° |
| 2026-05-05 21:39 | 39.05467 | -9.07116 | 21033 ft | 374 kts | 207° |
| 2026-05-05 21:39 | 39.03121 | -9.08567 | 20782 ft | 373 kts | 207° |
| 2026-05-05 21:39 | 39.00790 | -9.10006 | 20532 ft | 371 kts | 207° |
| 2026-05-05 21:39 | 38.98465 | -9.11439 | 20281 ft | 370 kts | 207° |
| 2026-05-05 21:40 | 38.96146 | -9.12865 | 19783 ft | 368 kts | 207° |
| 2026-05-05 21:40 | 38.93831 | -9.14289 | 19206 ft | 368 kts | 207° |
| 2026-05-05 21:40 | 38.91528 | -9.15706 | 18706 ft | 366 kts | 207° |
| 2026-05-05 21:40 | 38.89244 | -9.17111 | 18156 ft | 361 kts | 207° |
| 2026-05-05 21:41 | 38.87009 | -9.18479 | 17444 ft | 352 kts | 207° |
| 2026-05-05 21:41 | 38.84816 | -9.19820 | 16618 ft | 347 kts | 207° |
| 2026-05-05 21:41 | 38.82651 | -9.21145 | 15793 ft | 343 kts | 207° |
| 2026-05-05 21:41 | 38.80511 | -9.22458 | 14977 ft | 339 kts | 207° |
| 2026-05-05 21:42 | 38.78398 | -9.23755 | 14152 ft | 335 kts | 207° |
| 2026-05-05 21:42 | 38.76308 | -9.25034 | 13344 ft | 331 kts | 207° |
| 2026-05-05 21:42 | 38.74246 | -9.26294 | 12696 ft | 323 kts | 207° |
| 2026-05-05 21:42 | 38.72290 | -9.27484 | 12568 ft | 299 kts | 207° |
| 2026-05-05 21:43 | 38.70477 | -9.28583 | 12439 ft | 279 kts | 207° |
| 2026-05-05 21:43 | 38.68782 | -9.29612 | 12268 ft | 262 kts | 207° |
| 2026-05-05 21:43 | 38.67178 | -9.30589 | 11876 ft | 256 kts | 207° |
| 2026-05-05 21:43 | 38.65583 | -9.31564 | 11407 ft | 253 kts | 207° |
| 2026-05-05 21:44 | 38.63998 | -9.32535 | 10893 ft | 252 kts | 207° |
| 2026-05-05 21:44 | 38.62422 | -9.33499 | 10481 ft | 246 kts | 206° |
| 2026-05-05 21:44 | 38.60891 | -9.34307 | 10307 ft | 232 kts | 191° |
| 2026-05-05 21:44 | 38.59345 | -9.34180 | 10196 ft | 218 kts | 161° |
| 2026-05-05 21:45 | 38.58110 | -9.33147 | 9877 ft | 212 kts | 134° |
| 2026-05-05 21:45 | 38.57384 | -9.31529 | 9438 ft | 212 kts | 105° |
| 2026-05-05 21:45 | 38.57346 | -9.29671 | 9001 ft | 211 kts | 76° |
| 2026-05-05 21:45 | 38.57865 | -9.27931 | 8635 ft | 206 kts | 68° |
| 2026-05-05 21:46 | 38.58387 | -9.26327 | 8509 ft | 187 kts | 68° |
| 2026-05-05 21:46 | 38.58893 | -9.24846 | 8243 ft | 180 kts | 59° |
| 2026-05-05 21:46 | 38.59694 | -9.23626 | 7888 ft | 180 kts | 38° |
| 2026-05-05 21:46 | 38.60801 | -9.22824 | 7276 ft | 191 kts | 22° |
| 2026-05-05 21:47 | 38.62066 | -9.22157 | 6622 ft | 199 kts | 21° |
| 2026-05-05 21:47 | 38.63410 | -9.21473 | 5395 ft | 220 kts | 21° |
| 2026-05-05 21:47 | 38.64880 | -9.20685 | 3868 ft | 235 kts | 23° |
| 2026-05-05 21:47 | 38.66389 | -9.19843 | 2361 ft | 238 kts | 24° |
| 2026-05-05 21:48 | 38.67849 | -9.19073 | 1873 ft | 209 kts | 21° |
| 2026-05-05 21:48 | 38.69125 | -9.18400 | 1846 ft | 182 kts | 22° |
| 2026-05-05 21:48 | 38.70207 | -9.17825 | 1687 ft | 158 kts | 22° |
| 2026-05-05 21:48 | 38.71186 | -9.17304 | 1505 ft | 149 kts | 21° |
| 2026-05-05 21:49 | 38.72122 | -9.16804 | 1326 ft | 142 kts | 22° |
| 2026-05-05 21:49 | 38.73019 | -9.16326 | 1146 ft | 138 kts | 22° |
| 2026-05-05 21:49 | 38.73895 | -9.15855 | 945 ft | 136 kts | 22° |
| 2026-05-05 21:49 | 38.74764 | -9.15392 | 721 ft | 135 kts | 22° |
| 2026-05-05 21:50 | 38.75630 | -9.14935 | 526 ft | 134 kts | 22° |
| 2026-05-05 21:50 | 38.76488 | -9.14471 | 373 ft | 133 kts | 23° |
| 2026-05-05 21:50 | 38.77301 | -9.14035 | 360 ft | 109 kts | 21° |
| 2026-05-05 21:50 | 38.77841 | -9.13748 | 367 ft | 59 kts | 23° |
| 2026-05-05 21:51 | 38.78091 | -9.13613 | 366 ft | 31 kts | 24° |
| 2026-05-05 21:51 | 38.78221 | -9.13533 | 366 ft | 30 kts | 31° |